Terminal Aerodrome Forecast
Issued by NWS Sterling, VA

Home | Current Version | Previous Version | Text Only | Print | Product List | Glossary On
Versions: 1 2 3 4 5 6 7 8 9 10 11 12 13 14 15 16 17 18 19 20 21 22 23 24 25 26 27
000
FTUS41 KLWX 152300
TAFIAD
TAF
KIAD 152331Z 1600/1706 33019G27KT 5SM -RAPLSN SCT015 OVC050
     FM160100 33021G30KT P6SM BKN050
     FM160400 33018G25KT P6SM FEW250
     FM161200 36012G20KT P6SM SKC
     FM161900 01008KT P6SM SKC
     FM170000 06004KT P6SM SKC=

USA.gov is the U.S. government's official web portal to all federal, state and local government web resources and services.